Hauptseite
METAR-TAF:

METAR-TAF

Flughäfen :

Flughafen Rundu

Rundu, Namibia

Breite: 17-57-20S, Länge: 019-43-25E, Höhe: 1106 m

Beobachtung

Neuester Wetterbericht von vor 1 Stunde und 13 Minuten, um 11:00 UTC
Wind 6 kt aus Süd
Temperatur
Luftdruck
Sichtweite 10 km oder mehr
Aufgelockert bewölkt in der Höhe von 4000 ft

METAR: FYRU 291100Z 18006KT 9999 SCT040 ///// Q////

Zeit: 14:13 (12:13 UTC)

Prognose

Neuester Wetterbericht von vor 1 Stunde und 13 Minuten, um 11:00 UTC
Gültige Prognose vom 29 um 12 UTC bis 29 um 21 UTC
Wind 8 kt aus Süd
Sichtweite 10 km oder mehr
Aufgelockert bewölkt in der Höhe von 4000 ft
Wahrscheinlichkeit 30% :
Zeitweise
vom 29 um 13 UTC bis 29 um 17 UTC
Leicht bewölkt in der Höhe von 3500 ft, Kumulonimbus.
Gewitter, Leichtregen,

TAF: FYRU 291100Z 2912/2921 18008KT 9999 SCT040 PROB30 TEMPO 2913/2917 -TSRA FEW035CB

Wetterbeobachtungen und Prognosen von mehr als 4000 Flughäfen (METAR und TAF Bericht).

Die verfügbaren Stationen werden durch gelbe und rote Markierungen auf der Karte dargestellt.

Führen Sie die Maus auf sie, um den Namen der Station zu sehen.

Darauf klicken, um die Beobachtung von Wetterbeobachtungen und Prognosen zu sehen.

Um die Karte zu ändern : klicken Sie auf den grünen Tasten mit einem schwarzen Kreuz Zum Vergrößern, auf den grünen Button mit einem Gedankenstrich zu verkleinern, oder auf die grünen Pfeile für benachbarte Karten.


METAR-TAF: